PWSweather.com
Personal Weather Stations
Station Observations
KGAROSWE1
Roswell (historic Mill Village), Roswell, GA 30075

Roswell (historic Mill Village)Roswell, GA 30075

Lat: 34.014545, Lon: -84.358498

Elevation: 1025

Station Type: Davis Vantage Vue

http://www.roswellweather.net

Latest ConditionsUpdated 8:26:11 PM EDT Sunday, Mar 26, 2017
Currently Today's Max Today's Min Today's Average
Temperature 72.4°F22.4°C 78.8°F26.0°C 58.2°F14.6°C 66.6°F19.2°C
Dew Point 54.8°F12.7°C 61.1°F16.2°C 52.8°F11.6°C 57.4°F14.1°C
Winds Calm Calm 8.0 mph SW12.9 kmh SW - 2.5 mph 4.0 kmh
Wind Gusts -- 14.0 mph22.5 kmh - -
Humidity 54% 98% 44% 75%
Pressure 30.01 in1016.3 mb 30.10 in1019.3 mb 29.99 in1015.6 mb -
Hour Temp Dew Point Humidity Winds Wind Gusts Pressure Precip Precip Rate Daily Precip Total
08:26 PM 72.4°F22.4°C 54.8°F12.7°C 54% Calm Calm -- 30.01 in1016.3 mb 0.00 in0.0 mm 0.00 in0.0 mm 0.13 in3.3 mm
08:18 PM 72.9°F22.7°C 54.8°F12.7°C 53% Calm Calm -- 30.01 in1016.3 mb 0.00 in0.0 mm 0.00 in0.0 mm 0.13 in3.3 mm
08:10 PM 73.3°F22.9°C 55.2°F12.9°C 53% Calm Calm -- 30.01 in1016.3 mb 0.00 in0.0 mm 0.00 in0.0 mm 0.13 in3.3 mm
08:02 PM 73.7°F23.2°C 55.5°F13.1°C 53% Calm Calm -- 30.01 in1016.3 mb 0.00 in0.0 mm 0.00 in0.0 mm 0.13 in3.3 mm
07:54 PM 74.2°F23.4°C 55.5°F13.1°C 52% Calm Calm 2.0 mph3.2 kmh 30.01 in1016.3 mb 0.00 in0.0 mm 0.00 in0.0 mm 0.13 in3.3 mm
07:46 PM 74.6°F23.7°C 55.8°F13.2°C 52% 1.0 mph SE1.6 kmh SE 2.0 mph3.2 kmh 30.01 in1016.3 mb 0.00 in0.0 mm 0.00 in0.0 mm 0.13 in3.3 mm
07:38 PM 75.2°F24.0°C 55.9°F13.3°C 51% Calm Calm 2.0 mph3.2 kmh 30.01 in1016.3 mb 0.00 in0.0 mm 0.00 in0.0 mm 0.13 in3.3 mm
07:30 PM 75.7°F24.3°C 55.8°F13.2°C 50% 3.0 mph SW4.8 kmh SW 7.0 mph11.3 kmh 30.00 in1015.9 mb 0.00 in0.0 mm 0.00 in0.0 mm 0.13 in3.3 mm
07:22 PM 76.1°F24.5°C 55.6°F13.1°C 49% 4.0 mph SW6.4 kmh SW 4.0 mph6.4 kmh 30.00 in1015.9 mb 0.00 in0.0 mm 0.00 in0.0 mm 0.13 in3.3 mm
07:14 PM 76.3°F24.6°C 55.2°F12.9°C 48% 3.0 mph SW4.8 kmh SW 8.0 mph12.9 kmh 30.00 in1015.9 mb 0.00 in0.0 mm 0.00 in0.0 mm 0.13 in3.3 mm
07:06 PM 76.6°F24.8°C 54.9°F12.7°C 47% 4.0 mph SW6.4 kmh SW 9.0 mph14.5 kmh 30.00 in1015.9 mb 0.00 in0.0 mm 0.00 in0.0 mm 0.13 in3.3 mm
06:58 PM 76.6°F24.8°C 54.9°F12.7°C 47% 3.0 mph SSW4.8 kmh SSW 4.0 mph6.4 kmh 30.00 in1015.9 mb 0.00 in0.0 mm 0.00 in0.0 mm 0.13 in3.3 mm
06:50 PM 76.5°F24.7°C 54.8°F12.7°C 47% 6.0 mph WSW9.7 kmh WSW 7.0 mph11.3 kmh 30.00 in1015.9 mb 0.00 in0.0 mm 0.00 in0.0 mm 0.13 in3.3 mm
06:42 PM 76.4°F24.7°C 54.7°F12.6°C 47% 6.0 mph SW9.7 kmh SW 6.0 mph9.7 kmh 30.00 in1015.9 mb 0.00 in0.0 mm 0.00 in0.0 mm 0.13 in3.3 mm
06:34 PM 77.2°F25.1°C 54.8°F12.7°C 46% 3.0 mph WSW4.8 kmh WSW 5.0 mph8.0 kmh 30.00 in1015.9 mb 0.00 in0.0 mm 0.00 in0.0 mm 0.13 in3.3 mm
06:26 PM 78.0°F25.6°C 55.0°F12.8°C 45% 6.0 mph WSW9.7 kmh WSW 10.0 mph16.1 kmh 29.99 in1015.6 mb 0.00 in0.0 mm 0.00 in0.0 mm 0.13 in3.3 mm
06:18 PM 78.2°F25.7°C 54.5°F12.5°C 44% 3.0 mph SW4.8 kmh SW 6.0 mph9.7 kmh 30.00 in1015.9 mb 0.00 in0.0 mm 0.00 in0.0 mm 0.13 in3.3 mm
06:10 PM 78.2°F25.7°C 56.3°F13.5°C 47% 2.0 mph SW3.2 kmh SW 5.0 mph8.0 kmh 29.99 in1015.6 mb 0.00 in0.0 mm 0.00 in0.0 mm 0.13 in3.3 mm
06:02 PM 77.9°F25.5°C 56.1°F13.4°C 47% 1.0 mph S1.6 kmh S 1.0 mph1.6 kmh 29.99 in1015.6 mb 0.00 in0.0 mm 0.00 in0.0 mm 0.13 in3.3 mm
05:54 PM 78.1°F25.6°C 55.7°F13.2°C 46% 1.0 mph SSW1.6 kmh SSW 6.0 mph9.7 kmh 29.99 in1015.6 mb 0.00 in0.0 mm 0.00 in0.0 mm 0.13 in3.3 mm
05:46 PM 77.4°F25.2°C 56.2°F13.4°C 48% 3.0 mph S4.8 kmh S 11.0 mph17.7 kmh 29.99 in1015.6 mb 0.00 in0.0 mm 0.00 in0.0 mm 0.13 in3.3 mm
05:38 PM 77.5°F25.3°C 55.7°F13.2°C 47% 4.0 mph SW6.4 kmh SW 7.0 mph11.3 kmh 30.00 in1015.9 mb 0.00 in0.0 mm 0.00 in0.0 mm 0.13 in3.3 mm
05:30 PM 78.8°F26.0°C 56.9°F13.8°C 47% 2.0 mph S3.2 kmh S 7.0 mph11.3 kmh 30.00 in1015.9 mb 0.00 in0.0 mm 0.00 in0.0 mm 0.13 in3.3 mm
05:22 PM 78.1°F25.6°C 56.8°F13.8°C 48% 3.0 mph SW4.8 kmh SW 3.0 mph4.8 kmh 30.00 in1015.9 mb 0.00 in0.0 mm 0.00 in0.0 mm 0.13 in3.3 mm
05:14 PM 77.6°F25.3°C 57.0°F13.9°C 49% 3.0 mph SSW4.8 kmh SSW 5.0 mph8.0 kmh 30.00 in1015.9 mb 0.00 in0.0 mm 0.00 in0.0 mm 0.13 in3.3 mm
05:06 PM 77.8°F25.4°C 57.1°F13.9°C 49% 3.0 mph WSW4.8 kmh WSW 6.0 mph9.7 kmh 30.00 in1015.9 mb 0.00 in0.0 mm 0.00 in0.0 mm 0.13 in3.3 mm
04:58 PM 77.8°F25.4°C 56.6°F13.7°C 48% 1.0 mph SSE1.6 kmh SSE 6.0 mph9.7 kmh 30.01 in1016.3 mb 0.00 in0.0 mm 0.00 in0.0 mm 0.13 in3.3 mm
04:50 PM 77.2°F25.1°C 57.1°F13.9°C 50% 7.0 mph WSW11.3 kmh WSW 14.0 mph22.5 kmh 30.01 in1016.3 mb 0.00 in0.0 mm 0.00 in0.0 mm 0.13 in3.3 mm
04:42 PM 76.7°F24.8°C 56.7°F13.7°C 50% 1.0 mph WSW1.6 kmh WSW 5.0 mph8.0 kmh 30.01 in1016.3 mb 0.00 in0.0 mm 0.00 in0.0 mm 0.13 in3.3 mm
04:34 PM 77.5°F25.3°C 58.0°F14.4°C 51% 2.0 mph S3.2 kmh S 3.0 mph4.8 kmh 30.01 in1016.3 mb 0.00 in0.0 mm 0.00 in0.0 mm 0.13 in3.3 mm
04:26 PM 77.2°F25.1°C 57.1°F13.9°C 50% 7.0 mph WSW11.3 kmh WSW 9.0 mph14.5 kmh 30.01 in1016.3 mb 0.00 in0.0 mm 0.00 in0.0 mm 0.13 in3.3 mm
04:18 PM 76.7°F24.8°C 56.7°F13.7°C 50% 6.0 mph WSW9.7 kmh WSW 7.0 mph11.3 kmh 30.02 in1016.6 mb 0.00 in0.0 mm 0.00 in0.0 mm 0.13 in3.3 mm
04:10 PM 77.2°F25.1°C 58.2°F14.6°C 52% 1.0 mph SSW1.6 kmh SSW 7.0 mph11.3 kmh 30.02 in1016.6 mb 0.00 in0.0 mm 0.00 in0.0 mm 0.13 in3.3 mm
04:02 PM 77.2°F25.1°C 57.7°F14.3°C 51% 4.0 mph SW6.4 kmh SW 5.0 mph8.0 kmh 30.02 in1016.6 mb 0.00 in0.0 mm 0.00 in0.0 mm 0.13 in3.3 mm
03:54 PM 76.9°F24.9°C 56.9°F13.8°C 50% 6.0 mph SW9.7 kmh SW 11.0 mph17.7 kmh 30.02 in1016.6 mb 0.00 in0.0 mm 0.00 in0.0 mm 0.13 in3.3 mm
03:46 PM 77.1°F25.1°C 57.6°F14.2°C 51% 3.0 mph S4.8 kmh S 7.0 mph11.3 kmh 30.02 in1016.6 mb 0.00 in0.0 mm 0.00 in0.0 mm 0.13 in3.3 mm
03:38 PM 77.1°F25.1°C 57.6°F14.2°C 51% 4.0 mph SSW6.4 kmh SSW 12.0 mph19.3 kmh 30.03 in1016.9 mb 0.00 in0.0 mm 0.00 in0.0 mm 0.13 in3.3 mm
03:30 PM 76.2°F24.6°C 58.4°F14.7°C 54% 2.0 mph WSW3.2 kmh WSW 9.0 mph14.5 kmh 30.03 in1016.9 mb 0.00 in0.0 mm 0.00 in0.0 mm 0.13 in3.3 mm
03:22 PM 75.7°F24.3°C 58.4°F14.7°C 55% 3.0 mph SSW4.8 kmh SSW 4.0 mph6.4 kmh 30.03 in1016.9 mb 0.00 in0.0 mm 0.00 in0.0 mm 0.13 in3.3 mm
03:14 PM 75.2°F24.0°C 58.9°F14.9°C 57% 2.0 mph WSW3.2 kmh WSW 6.0 mph9.7 kmh 30.04 in1017.3 mb 0.00 in0.0 mm 0.00 in0.0 mm 0.13 in3.3 mm
03:06 PM 75.2°F24.0°C 58.9°F14.9°C 57% 2.0 mph S3.2 kmh S 9.0 mph14.5 kmh 30.04 in1017.3 mb 0.00 in0.0 mm 0.00 in0.0 mm 0.13 in3.3 mm
02:58 PM 75.4°F24.1°C 59.6°F15.3°C 58% 3.0 mph SW4.8 kmh SW 6.0 mph9.7 kmh 30.04 in1017.3 mb 0.00 in0.0 mm 0.00 in0.0 mm 0.13 in3.3 mm
02:50 PM 75.5°F24.2°C 59.7°F15.4°C 58% Calm Calm 5.0 mph8.0 kmh 30.05 in1017.6 mb 0.00 in0.0 mm 0.00 in0.0 mm 0.13 in3.3 mm
02:42 PM 74.7°F23.7°C 59.9°F15.5°C 60% 3.0 mph SSE4.8 kmh SSE 3.0 mph4.8 kmh 30.05 in1017.6 mb 0.00 in0.0 mm 0.00 in0.0 mm 0.13 in3.3 mm
02:34 PM 74.2°F23.4°C 59.9°F15.5°C 61% 5.0 mph SW8.0 kmh SW 7.0 mph11.3 kmh 30.05 in1017.6 mb 0.00 in0.0 mm 0.00 in0.0 mm 0.13 in3.3 mm
02:26 PM 73.4°F23.0°C 59.6°F15.3°C 62% 2.0 mph SSE3.2 kmh SSE 7.0 mph11.3 kmh 30.06 in1017.9 mb 0.00 in0.0 mm 0.00 in0.0 mm 0.13 in3.3 mm
02:18 PM 73.7°F23.2°C 59.4°F15.2°C 61% 4.0 mph SSE6.4 kmh SSE 8.0 mph12.9 kmh 30.06 in1017.9 mb 0.00 in0.0 mm 0.00 in0.0 mm 0.13 in3.3 mm
02:10 PM 73.2°F22.9°C 59.0°F15.0°C 61% 6.0 mph SW9.7 kmh SW 9.0 mph14.5 kmh 30.06 in1017.9 mb 0.00 in0.0 mm 0.00 in0.0 mm 0.13 in3.3 mm
02:02 PM 73.0°F22.8°C 59.2°F15.1°C 62% 2.0 mph SW3.2 kmh SW 3.0 mph4.8 kmh 30.06 in1017.9 mb 0.00 in0.0 mm 0.00 in0.0 mm 0.13 in3.3 mm
01:54 PM 73.2°F22.9°C 59.9°F15.5°C 63% 2.0 mph WSW3.2 kmh WSW 5.0 mph8.0 kmh 30.07 in1018.3 mb 0.00 in0.0 mm 0.00 in0.0 mm 0.13 in3.3 mm
01:46 PM 72.7°F22.6°C 59.4°F15.2°C 63% 2.0 mph SW3.2 kmh SW 8.0 mph12.9 kmh 30.07 in1018.3 mb 0.00 in0.0 mm 0.00 in0.0 mm 0.13 in3.3 mm
01:38 PM 72.8°F22.7°C 59.5°F15.3°C 63% 5.0 mph SW8.0 kmh SW 8.0 mph12.9 kmh 30.08 in1018.6 mb 0.00 in0.0 mm 0.00 in0.0 mm 0.13 in3.3 mm
01:30 PM 72.3°F22.4°C 59.5°F15.3°C 64% 3.0 mph SW4.8 kmh SW 6.0 mph9.7 kmh 30.08 in1018.6 mb 0.00 in0.0 mm 0.00 in0.0 mm 0.13 in3.3 mm
01:22 PM 71.0°F21.7°C 59.5°F15.3°C 67% 4.0 mph SSW6.4 kmh SSW 4.0 mph6.4 kmh 30.08 in1018.6 mb 0.00 in0.0 mm 0.00 in0.0 mm 0.13 in3.3 mm
01:14 PM 70.4°F21.3°C 59.4°F15.2°C 68% 4.0 mph S6.4 kmh S 6.0 mph9.7 kmh 30.08 in1018.6 mb 0.00 in0.0 mm 0.00 in0.0 mm 0.13 in3.3 mm
01:06 PM 70.6°F21.4°C 60.0°F15.6°C 69% 6.0 mph SW9.7 kmh SW 7.0 mph11.3 kmh 30.08 in1018.6 mb 0.00 in0.0 mm 0.00 in0.0 mm 0.13 in3.3 mm
12:58 PM 70.0°F21.1°C 59.4°F15.2°C 69% 4.0 mph SSE6.4 kmh SSE 7.0 mph11.3 kmh 30.08 in1018.6 mb 0.00 in0.0 mm 0.00 in0.0 mm 0.13 in3.3 mm
12:50 PM 69.5°F20.8°C 59.3°F15.2°C 70% 6.0 mph S9.7 kmh S 8.0 mph12.9 kmh 30.09 in1019.0 mb 0.00 in0.0 mm 0.00 in0.0 mm 0.13 in3.3 mm
12:42 PM 69.0°F20.6°C 58.8°F14.9°C 70% 5.0 mph SW8.0 kmh SW 5.0 mph8.0 kmh 30.09 in1019.0 mb 0.00 in0.0 mm 0.00 in0.0 mm 0.13 in3.3 mm
12:34 PM 69.0°F20.6°C 59.2°F15.1°C 71% 2.0 mph WSW3.2 kmh WSW 13.0 mph20.9 kmh 30.09 in1019.0 mb 0.00 in0.0 mm 0.00 in0.0 mm 0.13 in3.3 mm
12:26 PM 69.2°F20.7°C 59.4°F15.2°C 71% 7.0 mph SW11.3 kmh SW 10.0 mph16.1 kmh 30.09 in1019.0 mb 0.00 in0.0 mm 0.00 in0.0 mm 0.13 in3.3 mm
12:18 PM 68.7°F20.4°C 59.3°F15.2°C 72% 5.0 mph SSW8.0 kmh SSW 6.0 mph9.7 kmh 30.09 in1019.0 mb 0.00 in0.0 mm 0.00 in0.0 mm 0.13 in3.3 mm
12:10 PM 68.3°F20.2°C 59.7°F15.4°C 74% 6.0 mph SW9.7 kmh SW 7.0 mph11.3 kmh 30.09 in1019.0 mb 0.00 in0.0 mm 0.00 in0.0 mm 0.13 in3.3 mm
12:02 PM 67.7°F19.8°C 59.1°F15.1°C 74% 2.0 mph S3.2 kmh S 3.0 mph4.8 kmh 30.09 in1019.0 mb 0.00 in0.0 mm 0.00 in0.0 mm 0.13 in3.3 mm
11:54 AM 67.4°F19.7°C 59.2°F15.1°C 75% 4.0 mph SW6.4 kmh SW 8.0 mph12.9 kmh 30.10 in1019.3 mb 0.00 in0.0 mm 0.00 in0.0 mm 0.13 in3.3 mm
11:46 AM 67.3°F19.6°C 59.5°F15.3°C 76% 5.0 mph SW8.0 kmh SW 7.0 mph11.3 kmh 30.10 in1019.3 mb 0.00 in0.0 mm 0.00 in0.0 mm 0.13 in3.3 mm
11:38 AM 67.2°F19.6°C 59.4°F15.2°C 76% 6.0 mph SW9.7 kmh SW 13.0 mph20.9 kmh 30.10 in1019.3 mb 0.00 in0.0 mm 0.00 in0.0 mm 0.13 in3.3 mm
11:30 AM 67.4°F19.7°C 59.6°F15.3°C 76% 3.0 mph W4.8 kmh W 8.0 mph12.9 kmh 30.10 in1019.3 mb 0.00 in0.0 mm 0.00 in0.0 mm 0.13 in3.3 mm
11:22 AM 67.2°F19.6°C 60.8°F16.0°C 80% Calm Calm -- 30.10 in1019.3 mb 0.00 in0.0 mm 0.00 in0.0 mm 0.13 in3.3 mm
11:14 AM 66.9°F19.4°C 59.8°F15.4°C 78% 3.0 mph S4.8 kmh S 8.0 mph12.9 kmh 30.10 in1019.3 mb 0.00 in0.0 mm 0.00 in0.0 mm 0.13 in3.3 mm
11:06 AM 67.0°F19.4°C 60.3°F15.7°C 79% 3.0 mph WSW4.8 kmh WSW 7.0 mph11.3 kmh 30.10 in1019.3 mb 0.00 in0.0 mm 0.00 in0.0 mm 0.13 in3.3 mm
10:58 AM 66.1°F18.9°C 60.1°F15.6°C 81% 5.0 mph SSW8.0 kmh SSW 6.0 mph9.7 kmh 30.10 in1019.3 mb 0.00 in0.0 mm 0.00 in0.0 mm 0.13 in3.3 mm
10:50 AM 65.5°F18.6°C 60.2°F15.7°C 83% 2.0 mph S3.2 kmh S 4.0 mph6.4 kmh 30.10 in1019.3 mb 0.00 in0.0 mm 0.00 in0.0 mm 0.13 in3.3 mm
10:42 AM 65.1°F18.4°C 60.2°F15.7°C 84% 6.0 mph SSE9.7 kmh SSE 7.0 mph11.3 kmh 30.10 in1019.3 mb 0.00 in0.0 mm 0.00 in0.0 mm 0.13 in3.3 mm
10:34 AM 64.6°F18.1°C 60.3°F15.7°C 86% 4.0 mph SSE6.4 kmh SSE 8.0 mph12.9 kmh 30.10 in1019.3 mb 0.00 in0.0 mm 0.00 in0.0 mm 0.13 in3.3 mm
10:26 AM 64.1°F17.8°C 61.1°F16.2°C 90% 8.0 mph SW12.9 kmh SW 8.0 mph12.9 kmh 30.10 in1019.3 mb 0.00 in0.0 mm 0.00 in0.0 mm 0.13 in3.3 mm
10:18 AM 63.3°F17.4°C 60.6°F15.9°C 91% Calm Calm 2.0 mph3.2 kmh 30.10 in1019.3 mb 0.00 in0.0 mm 0.00 in0.0 mm 0.13 in3.3 mm
10:10 AM 62.4°F16.9°C 59.7°F15.4°C 91% 2.0 mph S3.2 kmh S 4.0 mph6.4 kmh 30.10 in1019.3 mb 0.00 in0.0 mm 0.00 in0.0 mm 0.13 in3.3 mm
10:02 AM 61.7°F16.5°C 60.0°F15.6°C 94% Calm Calm 1.0 mph1.6 kmh 30.10 in1019.3 mb 0.00 in0.0 mm 0.00 in0.0 mm 0.13 in3.3 mm
09:54 AM 61.1°F16.2°C 59.4°F15.2°C 94% 4.0 mph SE6.4 kmh SE 6.0 mph9.7 kmh 30.09 in1019.0 mb 0.00 in0.0 mm 0.00 in0.0 mm 0.13 in3.3 mm
09:46 AM 60.7°F15.9°C 59.3°F15.2°C 95% 1.0 mph SE1.6 kmh SE 2.0 mph3.2 kmh 30.09 in1019.0 mb 0.00 in0.0 mm 0.00 in0.0 mm 0.13 in3.3 mm
09:38 AM 60.2°F15.7°C 59.1°F15.1°C 96% 1.0 mph SE1.6 kmh SE 1.0 mph1.6 kmh 30.09 in1019.0 mb 0.00 in0.0 mm 0.00 in0.0 mm 0.13 in3.3 mm
09:30 AM 59.7°F15.4°C 58.9°F14.9°C 97% 1.0 mph SE1.6 kmh SE 4.0 mph6.4 kmh 30.09 in1019.0 mb 0.00 in0.0 mm 0.00 in0.0 mm 0.13 in3.3 mm
09:22 AM 59.4°F15.2°C 58.6°F14.8°C 97% Calm Calm 2.0 mph3.2 kmh 30.09 in1019.0 mb 0.00 in0.0 mm 0.00 in0.0 mm 0.13 in3.3 mm
09:14 AM 59.1°F15.1°C 58.3°F14.6°C 97% Calm Calm 2.0 mph3.2 kmh 30.09 in1019.0 mb 0.00 in0.0 mm 0.00 in0.0 mm 0.13 in3.3 mm
09:06 AM 58.9°F14.9°C 58.1°F14.5°C 97% Calm Calm -- 30.09 in1019.0 mb 0.00 in0.0 mm 0.00 in0.0 mm 0.13 in3.3 mm
08:58 AM 58.8°F14.9°C 58.2°F14.6°C 98% Calm Calm 1.0 mph1.6 kmh 30.08 in1018.6 mb 0.00 in0.0 mm 0.00 in0.0 mm 0.13 in3.3 mm
08:50 AM 58.6°F14.8°C 58.0°F14.4°C 98% Calm Calm 1.0 mph1.6 kmh 30.08 in1018.6 mb 0.00 in0.0 mm 0.00 in0.0 mm 0.13 in3.3 mm
08:42 AM 58.2°F14.6°C 57.6°F14.2°C 98% 1.0 mph E1.6 kmh E 2.0 mph3.2 kmh 30.08 in1018.6 mb 0.00 in0.0 mm 0.00 in0.0 mm 0.13 in3.3 mm
08:34 AM 58.5°F14.7°C 57.1°F13.9°C 95% 2.0 mph WSW3.2 kmh WSW 2.0 mph3.2 kmh 30.08 in1018.6 mb 0.00 in0.0 mm 0.00 in0.0 mm 0.13 in3.3 mm
08:26 AM 58.5°F14.7°C 57.1°F13.9°C 95% 2.0 mph WSW3.2 kmh WSW 2.0 mph3.2 kmh 30.08 in1018.6 mb 0.00 in0.0 mm 0.00 in0.0 mm 0.13 in3.3 mm
08:18 AM 58.5°F14.7°C 57.1°F13.9°C 95% 2.0 mph WSW3.2 kmh WSW 2.0 mph3.2 kmh 30.08 in1018.6 mb 0.00 in0.0 mm 0.00 in0.0 mm 0.13 in3.3 mm
08:08 AM 58.5°F14.7°C 57.1°F13.9°C 95% 2.0 mph WSW3.2 kmh WSW 2.0 mph3.2 kmh 30.08 in1018.6 mb 0.00 in0.0 mm 0.00 in0.0 mm 0.13 in3.3 mm
08:00 AM 58.5°F14.7°C 57.1°F13.9°C 95% 2.0 mph WSW3.2 kmh WSW 2.0 mph3.2 kmh 30.08 in1018.6 mb 0.00 in0.0 mm 0.00 in0.0 mm 0.13 in3.3 mm
07:52 AM 58.5°F14.7°C 57.1°F13.9°C 95% 2.0 mph WSW3.2 kmh WSW 2.0 mph3.2 kmh 30.07 in1018.3 mb 0.00 in0.0 mm 0.00 in0.0 mm 0.13 in3.3 mm
07:44 AM 58.5°F14.7°C 57.1°F13.9°C 95% 2.0 mph WSW3.2 kmh WSW 2.0 mph3.2 kmh 30.07 in1018.3 mb 0.00 in0.0 mm 0.00 in0.0 mm 0.13 in3.3 mm
07:36 AM 58.5°F14.7°C 57.1°F13.9°C 95% 2.0 mph WSW3.2 kmh WSW 2.0 mph3.2 kmh 30.07 in1018.3 mb 0.00 in0.0 mm 0.00 in0.0 mm 0.13 in3.3 mm
07:28 AM 58.5°F14.7°C 57.1°F13.9°C 95% 2.0 mph WSW3.2 kmh WSW 2.0 mph3.2 kmh 30.07 in1018.3 mb 0.00 in0.0 mm 0.00 in0.0 mm 0.13 in3.3 mm
07:20 AM 58.5°F14.7°C 57.1°F13.9°C 95% 2.0 mph WSW3.2 kmh WSW 2.0 mph3.2 kmh 30.07 in1018.3 mb 0.00 in0.0 mm 0.00 in0.0 mm 0.13 in3.3 mm
07:12 AM 58.5°F14.7°C 57.1°F13.9°C 95% 2.0 mph WSW3.2 kmh WSW 2.0 mph3.2 kmh 30.06 in1017.9 mb 0.00 in0.0 mm 0.00 in0.0 mm 0.13 in3.3 mm
07:04 AM 58.5°F14.7°C 57.1°F13.9°C 95% 2.0 mph WSW3.2 kmh WSW 2.0 mph3.2 kmh 30.06 in1017.9 mb 0.00 in0.0 mm 0.00 in0.0 mm 0.13 in3.3 mm
06:56 AM 58.5°F14.7°C 57.1°F13.9°C 95% 2.0 mph WSW3.2 kmh WSW 2.0 mph3.2 kmh 30.06 in1017.9 mb 0.00 in0.0 mm 0.00 in0.0 mm 0.13 in3.3 mm
06:48 AM 58.5°F14.7°C 57.1°F13.9°C 95% 2.0 mph WSW3.2 kmh WSW 2.0 mph3.2 kmh 30.06 in1017.9 mb 0.00 in0.0 mm 0.00 in0.0 mm 0.13 in3.3 mm
06:40 AM 58.5°F14.7°C 57.1°F13.9°C 95% 2.0 mph WSW3.2 kmh WSW 2.0 mph3.2 kmh 30.06 in1017.9 mb 0.00 in0.0 mm 0.00 in0.0 mm 0.13 in3.3 mm
06:32 AM 58.5°F14.7°C 57.1°F13.9°C 95% 2.0 mph WSW3.2 kmh WSW 2.0 mph3.2 kmh 30.05 in1017.6 mb 0.00 in0.0 mm 0.00 in0.0 mm 0.13 in3.3 mm
06:24 AM 58.5°F14.7°C 57.1°F13.9°C 95% 2.0 mph WSW3.2 kmh WSW 2.0 mph3.2 kmh 30.05 in1017.6 mb 0.00 in0.0 mm 0.00 in0.0 mm 0.13 in3.3 mm
06:16 AM 58.5°F14.7°C 57.1°F13.9°C 95% 2.0 mph WSW3.2 kmh WSW 2.0 mph3.2 kmh 30.05 in1017.6 mb 0.00 in0.0 mm 0.00 in0.0 mm 0.13 in3.3 mm
06:08 AM 58.5°F14.7°C 57.1°F13.9°C 95% 2.0 mph WSW3.2 kmh WSW 2.0 mph3.2 kmh 30.05 in1017.6 mb 0.00 in0.0 mm 0.00 in0.0 mm 0.13 in3.3 mm
06:00 AM 58.5°F14.7°C 57.1°F13.9°C 95% 2.0 mph WSW3.2 kmh WSW 2.0 mph3.2 kmh 30.05 in1017.6 mb 0.00 in0.0 mm 0.00 in0.0 mm 0.13 in3.3 mm
05:52 AM 58.5°F14.7°C 57.1°F13.9°C 95% 2.0 mph WSW3.2 kmh WSW 2.0 mph3.2 kmh 30.05 in1017.6 mb 0.00 in0.0 mm 0.00 in0.0 mm 0.13 in3.3 mm
05:44 AM 58.5°F14.7°C 57.1°F13.9°C 95% 2.0 mph WSW3.2 kmh WSW 2.0 mph3.2 kmh 30.05 in1017.6 mb 0.00 in0.0 mm 0.00 in0.0 mm 0.13 in3.3 mm
05:36 AM 58.5°F14.7°C 57.1°F13.9°C 95% 2.0 mph WSW3.2 kmh WSW 2.0 mph3.2 kmh 30.05 in1017.6 mb 0.00 in0.0 mm 0.00 in0.0 mm 0.13 in3.3 mm
05:28 AM 58.5°F14.7°C 57.1°F13.9°C 95% 2.0 mph WSW3.2 kmh WSW 2.0 mph3.2 kmh 30.04 in1017.3 mb 0.00 in0.0 mm 0.00 in0.0 mm 0.13 in3.3 mm
05:20 AM 58.5°F14.7°C 57.1°F13.9°C 95% 2.0 mph WSW3.2 kmh WSW 2.0 mph3.2 kmh 30.04 in1017.3 mb 0.00 in0.0 mm 0.00 in0.0 mm 0.13 in3.3 mm
05:12 AM 58.5°F14.7°C 57.1°F13.9°C 95% 2.0 mph WSW3.2 kmh WSW 2.0 mph3.2 kmh 30.05 in1017.6 mb 0.00 in0.0 mm 0.00 in0.0 mm 0.13 in3.3 mm
05:04 AM 58.5°F14.7°C 57.1°F13.9°C 95% 2.0 mph WSW3.2 kmh WSW 2.0 mph3.2 kmh 30.04 in1017.3 mb 0.00 in0.0 mm 0.00 in0.0 mm 0.13 in3.3 mm
04:56 AM 58.5°F14.7°C 57.1°F13.9°C 95% 2.0 mph WSW3.2 kmh WSW 2.0 mph3.2 kmh 30.04 in1017.3 mb 0.00 in0.0 mm 0.00 in0.0 mm 0.13 in3.3 mm
04:48 AM 58.5°F14.7°C 57.1°F13.9°C 95% 2.0 mph WSW3.2 kmh WSW 2.0 mph3.2 kmh 30.05 in1017.6 mb 0.00 in0.0 mm 0.00 in0.0 mm 0.13 in3.3 mm
04:40 AM 58.5°F14.7°C 57.1°F13.9°C 95% 2.0 mph WSW3.2 kmh WSW 2.0 mph3.2 kmh 30.05 in1017.6 mb 0.00 in0.0 mm 0.00 in0.0 mm 0.13 in3.3 mm
04:32 AM 58.5°F14.7°C 57.1°F13.9°C 95% 2.0 mph WSW3.2 kmh WSW 2.0 mph3.2 kmh 30.05 in1017.6 mb 0.00 in0.0 mm 0.00 in0.0 mm 0.13 in3.3 mm
04:24 AM 58.5°F14.7°C 57.1°F13.9°C 95% 2.0 mph WSW3.2 kmh WSW 2.0 mph3.2 kmh 30.05 in1017.6 mb 0.00 in0.0 mm 0.00 in0.0 mm 0.13 in3.3 mm
04:16 AM 58.5°F14.7°C 57.1°F13.9°C 95% 2.0 mph WSW3.2 kmh WSW 2.0 mph3.2 kmh 30.06 in1017.9 mb 0.00 in0.0 mm 0.00 in0.0 mm 0.13 in3.3 mm
04:08 AM 58.5°F14.7°C 57.1°F13.9°C 95% 2.0 mph WSW3.2 kmh WSW 2.0 mph3.2 kmh 30.06 in1017.9 mb 0.01 in0.3 mm 0.00 in0.0 mm 0.13 in3.3 mm
04:00 AM 58.5°F14.7°C 57.1°F13.9°C 95% 2.0 mph WSW3.2 kmh WSW 2.0 mph3.2 kmh 30.07 in1018.3 mb 0.05 in1.3 mm 0.00 in0.0 mm 0.13 in3.3 mm
03:52 AM 58.5°F14.7°C 57.1°F13.9°C 95% 2.0 mph WSW3.2 kmh WSW 2.0 mph3.2 kmh 30.07 in1018.3 mb 0.06 in1.5 mm 0.00 in0.0 mm 0.13 in3.3 mm
03:44 AM 58.5°F14.7°C 57.1°F13.9°C 95% 2.0 mph WSW3.2 kmh WSW 2.0 mph3.2 kmh 30.07 in1018.3 mb 0.08 in2.0 mm 0.00 in0.0 mm 0.13 in3.3 mm
03:36 AM 58.5°F14.7°C 57.1°F13.9°C 95% 2.0 mph WSW3.2 kmh WSW 2.0 mph3.2 kmh 30.07 in1018.3 mb 0.09 in2.3 mm 0.00 in0.0 mm 0.13 in3.3 mm
03:28 AM 58.5°F14.7°C 57.1°F13.9°C 95% 2.0 mph WSW3.2 kmh WSW 2.0 mph3.2 kmh 30.08 in1018.6 mb 0.09 in2.3 mm 0.00 in0.0 mm 0.13 in3.3 mm
03:20 AM 58.5°F14.7°C 57.1°F13.9°C 95% 2.0 mph WSW3.2 kmh WSW 2.0 mph3.2 kmh 30.08 in1018.6 mb 0.09 in2.3 mm 0.00 in0.0 mm 0.13 in3.3 mm
03:12 AM 58.7°F14.8°C 57.3°F14.1°C 95% 1.0 mph WSW1.6 kmh WSW 1.0 mph1.6 kmh 30.08 in1018.6 mb 0.09 in2.3 mm 0.15 in3.8 mm 0.13 in3.3 mm
03:04 AM 58.8°F14.9°C 57.4°F14.1°C 95% Calm Calm 3.0 mph4.8 kmh 30.08 in1018.6 mb 0.07 in1.8 mm 0.03 in0.8 mm 0.11 in2.8 mm
02:56 AM 58.9°F14.9°C 57.2°F14.0°C 94% 1.0 mph SW1.6 kmh SW 3.0 mph4.8 kmh 30.08 in1018.6 mb 0.04 in1.0 mm 0.15 in3.8 mm 0.08 in2.0 mm
02:48 AM 59.0°F15.0°C 57.3°F14.1°C 94% 1.0 mph WSW1.6 kmh WSW 1.0 mph1.6 kmh 30.07 in1018.3 mb 0.02 in0.5 mm 0.08 in2.0 mm 0.06 in1.5 mm
02:40 AM 59.0°F15.0°C 57.0°F13.9°C 93% Calm Calm -- 30.07 in1018.3 mb 0.01 in0.3 mm 0.08 in2.0 mm 0.05 in1.3 mm
02:32 AM 59.2°F15.1°C 57.2°F14.0°C 93% Calm Calm -- 30.08 in1018.6 mb 0.00 in0.0 mm 0.00 in0.0 mm 0.04 in1.0 mm
02:24 AM 59.2°F15.1°C 57.2°F14.0°C 93% Calm Calm -- 30.08 in1018.6 mb 0.01 in0.3 mm 0.00 in0.0 mm 0.04 in1.0 mm
02:16 AM 59.3°F15.2°C 57.0°F13.9°C 92% Calm Calm 2.0 mph3.2 kmh 30.07 in1018.3 mb 0.03 in0.8 mm 0.00 in0.0 mm 0.04 in1.0 mm
02:08 AM 59.4°F15.2°C 57.1°F13.9°C 92% 1.0 mph E1.6 kmh E 2.0 mph3.2 kmh 30.08 in1018.6 mb 0.04 in1.0 mm 0.00 in0.0 mm 0.04 in1.0 mm
02:00 AM 59.5°F15.3°C 56.9°F13.8°C 91% Calm Calm -- 30.09 in1019.0 mb 0.04 in1.0 mm 0.00 in0.0 mm 0.04 in1.0 mm
01:52 AM 59.7°F15.4°C 57.1°F13.9°C 91% Calm Calm -- 30.09 in1019.0 mb 0.04 in1.0 mm 0.00 in0.0 mm 0.04 in1.0 mm
01:44 AM 59.9°F15.5°C 56.7°F13.7°C 89% Calm Calm 1.0 mph1.6 kmh 30.09 in1019.0 mb 0.04 in1.0 mm 0.00 in0.0 mm 0.04 in1.0 mm
01:36 AM 60.3°F15.7°C 56.7°F13.7°C 88% 1.0 mph S1.6 kmh S 4.0 mph6.4 kmh 30.09 in1019.0 mb 0.04 in1.0 mm 0.00 in0.0 mm 0.04 in1.0 mm
01:28 AM 61.0°F16.1°C 56.8°F13.8°C 86% 1.0 mph SSW1.6 kmh SSW 4.0 mph6.4 kmh 30.09 in1019.0 mb 0.04 in1.0 mm 0.15 in3.8 mm 0.04 in1.0 mm
01:20 AM 62.3°F16.8°C 56.7°F13.7°C 82% 3.0 mph SSE4.8 kmh SSE 5.0 mph8.0 kmh 30.09 in1019.0 mb 0.02 in0.5 mm 0.08 in2.0 mm 0.02 in0.5 mm
01:12 AM 63.6°F17.6°C 56.3°F13.5°C 77% 5.0 mph S8.0 kmh S 6.0 mph9.7 kmh 30.09 in1019.0 mb 0.01 in0.3 mm 0.08 in2.0 mm 0.01 in0.3 mm
01:04 AM 64.9°F18.3°C 55.7°F13.2°C 72% 3.0 mph SSE4.8 kmh SSE 4.0 mph6.4 kmh 30.08 in1018.6 mb 0.00 in0.0 mm 0.00 in0.0 mm 0.00 in0.0 mm
12:56 AM 65.9°F18.8°C 54.7°F12.6°C 67% 3.0 mph E4.8 kmh E 7.0 mph11.3 kmh 30.07 in1018.3 mb 0.00 in0.0 mm 0.00 in0.0 mm 0.00 in0.0 mm
12:48 AM 66.0°F18.9°C 54.3°F12.4°C 66% 4.0 mph SE6.4 kmh SE 7.0 mph11.3 kmh 30.07 in1018.3 mb 0.00 in0.0 mm 0.00 in0.0 mm 0.00 in0.0 mm
12:40 AM 66.0°F18.9°C 53.9°F12.2°C 65% 2.0 mph SSE3.2 kmh SSE 7.0 mph11.3 kmh 30.06 in1017.9 mb 0.00 in0.0 mm 0.00 in0.0 mm 0.00 in0.0 mm
12:32 AM 65.9°F18.8°C 53.4°F11.9°C 64% 4.0 mph SW6.4 kmh SW 4.0 mph6.4 kmh 30.06 in1017.9 mb 0.00 in0.0 mm 0.00 in0.0 mm 0.00 in0.0 mm
12:24 AM 65.9°F18.8°C 53.4°F11.9°C 64% Calm Calm 3.0 mph4.8 kmh 30.07 in1018.3 mb 0.00 in0.0 mm 0.00 in0.0 mm 0.00 in0.0 mm
12:16 AM 65.8°F18.8°C 52.9°F11.6°C 63% 3.0 mph E4.8 kmh E 6.0 mph9.7 kmh 30.07 in1018.3 mb 0.00 in0.0 mm 0.00 in0.0 mm 0.00 in0.0 mm
12:08 AM 65.8°F18.8°C 52.9°F11.6°C 63% 2.0 mph S3.2 kmh S 7.0 mph11.3 kmh 30.07 in1018.3 mb 0.00 in0.0 mm 0.00 in0.0 mm 0.00 in0.0 mm
12:00 AM 65.7°F18.7°C 52.8°F11.6°C 63% 1.0 mph SE1.6 kmh SE 5.0 mph8.0 kmh 30.07 in1018.3 mb 0.00 in0.0 mm 0.00 in0.0 mm 0.00 in0.0 mm